Accueil
METAR-TAF:

METAR-TAF

Aéroports :

Luganville, Espiritu Santo, Vanuatu

Aéroport de Santo-Pekoa

latitude: 15-31S, longitude: 167-13E, altitude: 41 m

Observation

Le bulletin a été fait il y a 1 heure et 43 minutes, à 12:00 UTC
Vent 7 kt de sud/sud-est
Température 23°C
Humidité 78%
Pression 1014 hPa

METAR: NVSS 211200Z AUTO 16007KT //// // 23/19 Q1014 RMK NIL

Heure: 00:43 (13:43 UTC)

Prévision

Le bulletin a été fait il y a 3 heures et 43 minutes, à 10:00 UTC
Prévision valable du 21 à 12 UTC au 22 à 12 UTC
Vent 5 kt de sud-ouest
Visibilité 10 km ou plus
Nuages épars à une hauteur de 2000 ft
Probabilité 30%
entre IN et TE UTC
Visibilité: 9000 m
Nuages fragmentés à une hauteur de 1800 ft
faibles averses de pluie
Evoluant progressivement
du 21 à 12 UTC au 21 à 15 UTC
Vent 2 kt de direction variable

TAF: NVSS 211000Z 2112/2212 23005KT 9999 SCT020 PROB30 INTER 2112/2118 9000 -SHRA BKN018 BECMG 2112/2115 VRB02KT

Observations et prévisions météorologiques de plus de 4000 aéroports (messages METAR et TAF).

Les stations disponibles sont représentées par des disques jaunes et rouges sur la carte.

Passer la souris dessus pour voir le nom de la station.

Cliquer dessus pour voir les observations et prévisions météorologiques.

Pour changer de carte: cliquez sur les boutons verts avec une croix noire pour zoomer, sur le bouton vert avec un tiret pour effectuer un zoom arrière, ou sur les flèches vertes pour les cartes adjacentes.


METAR-TAF: